Time;durP1;ratioP1;P1;durP2;ratioP2;P2;SDS_P1;SDS_P2;PMS_P1;PMS_P2;Temp;Humidity;BMP_temperature;BMP_pressure;BME280_temperature;BME280_humidity;BME280_pressure;Samples;Min_cycle;Max_cycle;Signal;HPM_P1;HPM_P2
2021/03/18 14:51:53;;;;;;;27.43;15.17;;;5.00;99.90;;;;;;5045315;23;20239;-82
2021/03/18 14:54:20;;;;;;;27.70;15.97;;;5.10;99.90;;;;;;5090723;28;20703;-81
2021/03/18 14:56:46;;;;;;;29.57;15.23;;;5.10;99.90;;;;;;5078790;28;20214;-79
2021/03/18 14:59:13;;;;;;;30.50;16.53;;;5.20;99.90;;;;;;5078178;28;20217;-81
2021/03/18 15:01:39;;;;;;;28.47;15.33;;;5.20;99.90;;;;;;5088583;28;20764;-81
2021/03/18 15:04:06;;;;;;;28.43;15.97;;;5.10;99.90;;;;;;5089355;28;20286;-82
2021/03/18 15:06:34;;;;;;;28.43;15.77;;;5.00;99.90;;;;;;5093346;28;20232;-81
2021/03/18 15:09:02;;;;;;;27.73;16.63;;;5.00;99.90;;;;;;5077667;28;20221;-81
2021/03/18 15:11:29;;;;;;;30.37;15.43;;;5.20;99.90;;;;;;5088880;28;20688;-81
2021/03/18 15:13:55;;;;;;;25.57;14.40;;;5.20;99.90;;;;;;5081543;28;20645;-83
2021/03/18 15:16:21;;;;;;;29.23;15.93;;;5.40;99.90;;;;;;5078259;28;20229;-82
2021/03/18 15:18:48;;;;;;;27.77;15.37;;;5.20;99.90;;;;;;5081734;28;20244;-82
2021/03/18 15:21:14;;;;;;;29.00;15.13;;;5.10;99.90;;;;;;5069232;28;20257;-82
2021/03/18 15:23:41;;;;;;;27.07;15.10;;;5.30;99.90;;;;;;5082629;28;20241;-80
2021/03/18 15:26:08;;;;;;;28.57;15.87;;;5.30;99.90;;;;;;5086334;28;20293;-81
2021/03/18 15:28:35;;;;;;;29.00;16.00;;;5.30;99.90;;;;;;5078971;28;20719;-84
2021/03/18 15:31:02;;;;;;;32.40;17.70;;;5.10;99.90;;;;;;5087261;28;20245;-82
2021/03/18 15:33:28;;;;;;;31.43;16.93;;;5.10;99.90;;;;;;5078394;28;20290;-82
2021/03/18 15:35:57;;;;;;;28.37;15.30;;;5.20;99.90;;;;;;5082124;28;20633;-82
2021/03/18 15:38:28;;;;;;;29.17;16.20;;;5.10;99.90;;;;;;5090478;28;20225;-82
2021/03/18 15:40:55;;;;;;;25.83;14.83;;;5.10;99.90;;;;;;5087007;28;20239;-81
2021/03/18 15:43:23;;;;;;;31.83;17.03;;;5.20;99.90;;;;;;5091224;28;20208;-83
2021/03/18 15:45:49;;;;;;;33.83;18.50;;;5.20;99.90;;;;;;5090228;28;20262;-82
2021/03/18 15:48:18;;;;;;;29.20;16.23;;;5.20;99.90;;;;;;5082188;28;20648;-82
2021/03/18 15:50:48;;;;;;;26.97;14.83;;;5.10;99.90;;;;;;5091211;28;20225;-81
2021/03/18 15:53:17;;;;;;;31.03;16.63;;;5.00;99.90;;;;;;5087857;28;20220;-82
2021/03/18 15:55:49;;;;;;;31.73;17.07;;;5.00;99.90;;;;;;5086635;28;20205;-82
2021/03/18 15:58:19;;;;;;;28.20;15.13;;;5.00;99.90;;;;;;5092146;28;20217;-82
2021/03/18 16:00:47;;;;;;;31.20;16.27;;;5.00;99.90;;;;;;5088664;28;20225;-82
2021/03/18 16:03:18;;;;;;;28.37;16.30;;;5.00;99.90;;;;;;5089992;28;20210;-83
2021/03/18 16:05:46;;;;;;;30.23;17.00;;;5.00;99.90;;;;;;5086798;28;20647;-81
2021/03/18 16:08:13;;;;;;;30.27;16.23;;;5.00;99.90;;;;;;5092591;28;20568;-84
2021/03/18 16:10:42;;;;;;;31.47;17.23;;;5.00;99.90;;;;;;5089929;28;20612;-82
2021/03/18 16:13:12;;;;;;;28.93;16.53;;;4.90;99.90;;;;;;5094825;28;20619;-81
2021/03/18 16:15:40;;;;;;;30.80;18.70;;;4.80;99.90;;;;;;5091421;28;20809;-81
2021/03/18 16:18:10;;;;;;;28.03;15.53;;;4.90;99.90;;;;;;5096087;28;20643;-83
2021/03/18 16:20:37;;;;;;;29.43;17.10;;;4.90;99.90;;;;;;5094465;28;20312;-82
2021/03/18 16:23:12;;;;;;;27.67;16.23;;;4.80;99.90;;;;;;5095920;28;20339;-82
2021/03/18 16:25:40;;;;;;;37.20;17.30;;;4.90;99.90;;;;;;5100056;28;20229;-81
2021/03/18 16:28:06;;;;;;;28.67;15.27;;;4.90;99.90;;;;;;5087132;28;20649;-81
2021/03/18 16:30:33;;;;;;;29.57;16.63;;;4.90;99.90;;;;;;5094194;28;20213;-83
2021/03/18 16:33:00;;;;;;;31.10;15.77;;;4.90;99.90;;;;;;5095982;28;20841;-82
2021/03/18 16:35:29;;;;;;;28.60;15.57;;;4.80;99.90;;;;;;5093541;28;20245;-81
2021/03/18 16:37:57;;;;;;;31.60;16.93;;;4.80;99.90;;;;;;5082190;28;20249;-83
2021/03/18 16:40:27;;;;;;;27.77;15.73;;;4.80;99.90;;;;;;5080737;28;20233;-83
2021/03/18 16:43:00;;;;;;;30.73;16.37;;;4.80;99.90;;;;;;5091817;28;20607;-82
2021/03/18 16:45:26;;;;;;;30.93;16.10;;;4.80;99.90;;;;;;5089919;28;20201;-82
2021/03/18 16:47:56;;;;;;;31.60;15.67;;;4.70;99.90;;;;;;5095901;28;20332;-84
2021/03/18 16:50:28;;;;;;;32.77;17.40;;;4.60;99.90;;;;;;5090120;28;20282;-83
2021/03/18 16:52:55;;;;;;;35.63;20.27;;;4.60;99.90;;;;;;5104331;28;20205;-82
2021/03/18 16:55:24;;;;;;;35.13;20.00;;;4.60;99.90;;;;;;5100474;28;20201;-82
2021/03/18 16:57:51;;;;;;;32.23;17.33;;;4.60;99.90;;;;;;5094032;28;20242;-82
2021/03/18 17:00:24;;;;;;;30.53;16.10;;;4.60;99.90;;;;;;5099084;28;20248;-82
2021/03/18 17:02:50;;;;;;;30.53;16.57;;;4.60;99.90;;;;;;5101349;28;20676;-82
2021/03/18 17:05:20;;;;;;;36.50;18.67;;;4.60;99.90;;;;;;5094854;28;20230;-82
2021/03/18 17:07:48;;;;;;;31.03;17.37;;;4.60;99.90;;;;;;5090989;28;20234;-83
2021/03/18 17:10:21;;;;;;;29.80;16.27;;;4.50;99.90;;;;;;5066712;28;20910;-81
2021/03/18 17:12:49;;;;;;;45.87;24.27;;;4.50;99.90;;;;;;5084035;28;20225;-83
2021/03/18 17:15:15;;;;;;;44.63;25.43;;;4.50;99.90;;;;;;5094886;28;20293;-83
2021/03/18 17:17:43;;;;;;;35.63;17.37;;;4.50;99.90;;;;;;5096042;28;20278;-84
2021/03/18 17:20:14;;;;;;;27.03;14.23;;;4.40;99.90;;;;;;5086797;28;20225;-82
2021/03/18 17:22:45;;;;;;;25.83;15.13;;;4.40;99.90;;;;;;5088100;28;20317;-83
2021/03/18 17:25:21;;;;;;;25.63;14.73;;;4.40;99.90;;;;;;5090850;28;20566;-83
2021/03/18 17:27:51;;;;;;;38.03;24.03;;;4.40;99.90;;;;;;5091136;28;20209;-83
2021/03/18 17:30:22;;;;;;;39.30;25.97;;;4.40;99.90;;;;;;5085229;28;20248;-83
2021/03/18 17:32:49;;;;;;;34.13;22.43;;;4.40;99.90;;;;;;5089952;28;20204;-82
2021/03/18 17:35:18;;;;;;;34.23;23.73;;;4.40;99.90;;;;;;5087509;28;20280;-83
2021/03/18 17:37:48;;;;;;;31.07;20.00;;;4.30;99.90;;;;;;5085568;28;20249;-82
2021/03/18 17:40:20;;;;;;;28.33;18.23;;;4.20;99.90;;;;;;5089912;28;20218;-83
2021/03/18 17:42:47;;;;;;;28.53;18.93;;;4.10;99.90;;;;;;5086138;28;20565;-81
2021/03/18 17:45:15;;;;;;;23.17;13.10;;;4.10;99.90;;;;;;5094842;28;20288;-82
2021/03/18 17:47:43;;;;;;;23.87;12.13;;;4.20;99.90;;;;;;5089141;28;20261;-83
2021/03/18 17:50:13;;;;;;;23.27;11.90;;;4.20;99.90;;;;;;5092898;28;20201;-83
2021/03/18 17:52:42;;;;;;;22.93;12.87;;;4.20;99.90;;;;;;5095603;28;20202;-82
2021/03/18 17:55:11;;;;;;;23.87;12.27;;;4.10;99.90;;;;;;5089945;28;20410;-82
2021/03/18 17:57:39;;;;;;;21.27;11.97;;;4.20;99.90;;;;;;5096643;28;20237;-83
2021/03/18 18:00:13;;;;;;;23.67;12.77;;;4.20;99.90;;;;;;5088953;28;20444;-82
2021/03/18 18:02:42;;;;;;;23.13;12.10;;;4.10;99.90;;;;;;5088980;28;20681;-82
2021/03/18 18:05:13;;;;;;;23.00;13.23;;;4.20;99.90;;;;;;5079934;28;20198;-82
2021/03/18 18:07:45;;;;;;;23.97;13.70;;;4.20;99.90;;;;;;5101312;28;20205;-84
2021/03/18 18:10:17;;;;;;;21.23;12.77;;;4.10;99.90;;;;;;5093071;28;20244;-85
2021/03/18 18:12:44;;;;;;;22.90;13.07;;;4.10;99.90;;;;;;5083243;28;20202;-84
2021/03/18 18:15:14;;;;;;;21.50;12.73;;;4.10;99.90;;;;;;5079057;28;20242;-82
2021/03/18 18:17:44;;;;;;;22.97;14.10;;;4.10;99.90;;;;;;5091978;28;20374;-81
2021/03/18 18:20:12;;;;;;;23.37;13.87;;;4.10;99.90;;;;;;5087900;28;20212;-82
2021/03/18 18:22:38;;;;;;;22.77;13.03;;;4.00;99.90;;;;;;5080945;28;20241;-81
2021/03/18 18:25:09;;;;;;;21.83;12.27;;;4.10;99.90;;;;;;5090320;28;20339;-82
2021/03/18 18:27:39;;;;;;;24.40;13.17;;;4.20;99.90;;;;;;5079011;28;20258;-82
2021/03/18 18:30:15;;;;;;;26.07;13.53;;;4.10;99.90;;;;;;5078464;28;20217;-82
2021/03/18 18:32:43;;;;;;;23.93;13.90;;;4.00;99.90;;;;;;5092272;28;20676;-83
2021/03/18 18:35:15;;;;;;;25.67;14.20;;;4.00;99.90;;;;;;5078501;28;20256;-82
2021/03/18 18:37:43;;;;;;;25.27;14.73;;;4.00;99.90;;;;;;5075085;28;20304;-81
2021/03/18 18:40:11;;;;;;;23.50;13.53;;;4.00;99.90;;;;;;5074631;28;20222;-85
2021/03/18 18:42:38;;;;;;;24.00;14.23;;;3.90;99.90;;;;;;5079856;28;20572;-84
2021/03/18 18:45:09;;;;;;;25.47;14.53;;;3.90;99.90;;;;;;5088752;28;20244;-83
2021/03/18 18:47:38;;;;;;;25.07;13.80;;;3.90;99.90;;;;;;5080489;28;20205;-85
2021/03/18 18:50:08;;;;;;;23.67;13.40;;;4.00;99.90;;;;;;5082279;28;20225;-84
2021/03/18 18:52:37;;;;;;;23.70;13.47;;;3.90;99.90;;;;;;5082143;28;20543;-82
2021/03/18 18:55:05;;;;;;;24.67;13.33;;;4.00;99.90;;;;;;5090026;28;20229;-83
2021/03/18 18:57:32;;;;;;;24.03;12.83;;;3.90;99.90;;;;;;5090765;28;20205;-83
2021/03/18 19:00:02;;;;;;;25.10;14.10;;;3.90;99.90;;;;;;5090178;28;20336;-83
2021/03/18 19:02:32;;;;;;;25.83;14.87;;;3.80;99.90;;;;;;5089347;28;20205;-83
2021/03/18 19:05:01;;;;;;;26.17;14.83;;;3.80;99.90;;;;;;5084785;28;20205;-82
2021/03/18 19:07:27;;;;;;;23.53;13.13;;;3.80;99.90;;;;;;5089689;28;20292;-82
2021/03/18 19:09:56;;;;;;;25.17;15.20;;;3.80;99.90;;;;;;5087940;28;20436;-82
2021/03/18 19:12:24;;;;;;;24.70;14.93;;;3.60;99.90;;;;;;5079710;28;20580;-82
2021/03/18 19:14:51;;;;;;;24.93;15.20;;;3.70;99.90;;;;;;5080492;28;20233;-83
2021/03/18 19:17:18;;;;;;;25.73;14.87;;;3.80;99.90;;;;;;5082856;28;20603;-84
2021/03/18 19:19:46;;;;;;;23.03;14.17;;;3.70;99.90;;;;;;5090055;28;20308;-84
2021/03/18 19:22:16;;;;;;;26.50;14.00;;;3.70;99.90;;;;;;5080509;28;20656;-83
2021/03/18 19:24:43;;;;;;;29.53;16.37;;;3.70;99.90;;;;;;5089688;28;20237;-84
2021/03/18 19:27:12;;;;;;;24.67;14.90;;;3.70;99.90;;;;;;5076947;28;20201;-83
2021/03/18 19:29:42;;;;;;;24.77;14.90;;;3.70;99.90;;;;;;5087556;28;20581;-82
2021/03/18 19:32:09;;;;;;;26.50;15.07;;;3.70;99.90;;;;;;5080089;28;20230;-82
2021/03/18 19:34:36;;;;;;;25.90;15.83;;;3.70;99.90;;;;;;5091840;28;20206;-82
2021/03/18 19:37:09;;;;;;;25.80;15.67;;;3.80;99.90;;;;;;5072737;28;20663;-82
2021/03/18 19:39:37;;;;;;;25.33;14.77;;;3.70;99.90;;;;;;5090548;28;20726;-81
2021/03/18 19:42:04;;;;;;;24.60;14.07;;;3.60;99.90;;;;;;5091315;28;20258;-82
2021/03/18 19:44:31;;;;;;;24.13;14.17;;;3.70;99.90;;;;;;5082608;28;20197;-82
2021/03/18 19:46:57;;;;;;;24.67;14.30;;;3.60;99.90;;;;;;5083185;28;20212;-84
2021/03/18 19:49:24;;;;;;;24.70;14.23;;;3.60;99.90;;;;;;5086321;28;20225;-82
2021/03/18 19:51:52;;;;;;;25.27;14.90;;;3.60;99.90;;;;;;5086736;28;20254;-81
2021/03/18 19:54:19;;;;;;;28.13;15.87;;;3.70;99.90;;;;;;5087753;28;20198;-82
2021/03/18 19:56:47;;;;;;;27.13;16.43;;;3.70;99.90;;;;;;5090307;28;20225;-82
2021/03/18 19:59:14;;;;;;;30.63;17.37;;;3.80;99.90;;;;;;5093449;28;20670;-82
2021/03/18 20:01:41;;;;;;;28.10;16.50;;;3.80;99.90;;;;;;5093881;28;20217;-84
2021/03/18 20:04:10;;;;;;;29.53;16.57;;;3.90;99.90;;;;;;5089274;28;20285;-84
2021/03/18 20:06:37;;;;;;;26.57;15.90;;;3.80;99.90;;;;;;5076111;28;20203;-85
2021/03/18 20:09:06;;;;;;;28.77;16.40;;;3.90;99.90;;;;;;5082728;28;20209;-83
2021/03/18 20:11:34;;;;;;;30.07;17.63;;;3.80;99.90;;;;;;5093180;28;20243;-81
2021/03/18 20:14:01;;;;;;;32.83;18.23;;;3.80;99.90;;;;;;5087856;28;20198;-82
2021/03/18 20:16:28;;;;;;;32.63;17.73;;;3.80;99.90;;;;;;5088832;28;20209;-81
2021/03/18 20:18:55;;;;;;;27.13;16.17;;;3.80;99.90;;;;;;5094998;28;20218;-81
2021/03/18 20:21:24;;;;;;;28.13;15.43;;;3.70;99.90;;;;;;5086974;28;20673;-82
2021/03/18 20:23:52;;;;;;;28.13;16.27;;;3.60;99.90;;;;;;5090515;28;20612;-82
2021/03/18 20:26:20;;;;;;;29.37;16.47;;;3.40;99.90;;;;;;5078946;28;20202;-83
2021/03/18 20:28:53;;;;;;;31.03;17.90;;;3.40;99.90;;;;;;5083718;28;20292;-82
2021/03/18 20:31:22;;;;;;;28.03;15.83;;;3.30;99.90;;;;;;5097094;28;20566;-82
2021/03/18 20:33:49;;;;;;;28.33;16.73;;;3.40;99.90;;;;;;5095149;28;20689;-80
2021/03/18 20:36:17;;;;;;;28.13;15.37;;;3.40;99.90;;;;;;5100403;28;20289;-82
2021/03/18 20:38:46;;;;;;;30.27;16.63;;;3.40;99.90;;;;;;5094838;28;20249;-82
2021/03/18 20:41:13;;;;;;;30.93;17.10;;;3.40;99.90;;;;;;5096447;28;21061;-82
2021/03/18 20:43:42;;;;;;;30.93;18.10;;;3.40;99.90;;;;;;5087159;28;20206;-82
2021/03/18 20:46:09;;;;;;;32.20;18.37;;;3.50;99.90;;;;;;5086724;28;20256;-83
2021/03/18 20:48:37;;;;;;;32.83;18.80;;;3.40;99.90;;;;;;5090217;28;20212;-82
2021/03/18 20:51:05;;;;;;;29.50;17.27;;;3.40;99.90;;;;;;5087631;28;20221;-82
2021/03/18 20:53:32;;;;;;;30.53;17.97;;;3.40;99.90;;;;;;5090386;28;20286;-83
2021/03/18 20:55:59;;;;;;;31.20;18.73;;;3.40;99.90;;;;;;5092673;28;20228;-83
2021/03/18 20:58:26;;;;;;;31.13;17.40;;;3.30;99.90;;;;;;5092964;28;20662;-82
2021/03/18 21:00:55;;;;;;;33.30;18.20;;;3.40;99.90;;;;;;5086535;28;20762;-83
2021/03/18 21:03:24;;;;;;;30.93;16.83;;;3.40;99.90;;;;;;5095399;28;20202;-83
2021/03/18 21:05:53;;;;;;;38.50;18.77;;;3.30;99.90;;;;;;5092113;28;20687;-81
2021/03/18 21:08:20;;;;;;;35.07;18.67;;;3.30;99.90;;;;;;5095426;28;20276;-81
2021/03/18 21:10:48;;;;;;;35.93;17.17;;;3.20;99.90;;;;;;5092645;28;20263;-83
2021/03/18 21:13:18;;;;;;;31.77;16.93;;;3.20;99.90;;;;;;5094597;28;20724;-81
2021/03/18 21:15:47;;;;;;;29.37;16.33;;;3.20;99.90;;;;;;5090748;28;20253;-81
2021/03/18 21:18:13;;;;;;;26.57;14.00;;;3.20;99.90;;;;;;5095034;28;20741;-82
2021/03/18 21:20:42;;;;;;;29.33;13.80;;;3.10;99.90;;;;;;5092709;28;20220;-83
2021/03/18 21:23:11;;;;;;;23.03;12.03;;;3.10;99.90;;;;;;5097233;28;20221;-82
2021/03/18 21:25:38;;;;;;;23.67;12.87;;;3.00;99.90;;;;;;5093741;28;20201;-82
2021/03/18 21:28:06;;;;;;;24.73;13.60;;;3.10;99.90;;;;;;5100699;28;20209;-82
2021/03/18 21:30:35;;;;;;;26.33;12.63;;;3.10;99.90;;;;;;5095734;28;20225;-82
2021/03/18 21:33:05;;;;;;;22.90;12.57;;;3.10;99.90;;;;;;5098811;28;20261;-82
2021/03/18 21:35:34;;;;;;;22.53;12.60;;;3.10;99.90;;;;;;5096813;28;20237;-82
2021/03/18 21:38:03;;;;;;;23.57;11.43;;;3.10;99.90;;;;;;5100855;28;20235;-82
2021/03/18 21:40:30;;;;;;;25.83;13.27;;;3.10;99.90;;;;;;5098822;28;20245;-82
2021/03/18 21:43:00;;;;;;;22.03;12.17;;;3.00;99.90;;;;;;5098019;28;20297;-82
2021/03/18 21:45:32;;;;;;;25.07;11.70;;;2.90;99.90;;;;;;5091105;28;20194;-83
2021/03/18 21:47:59;;;;;;;23.03;11.03;;;2.80;99.90;;;;;;5096017;28;20221;-83
2021/03/18 21:50:30;;;;;;;21.07;11.03;;;2.90;99.90;;;;;;5096224;28;20280;-83
2021/03/18 21:52:58;;;;;;;20.40;11.03;;;2.80;99.90;;;;;;5101506;28;20213;-83
2021/03/18 21:55:28;;;;;;;21.40;11.17;;;2.80;99.90;;;;;;5088972;28;20235;-83
2021/03/18 21:57:56;;;;;;;25.57;12.40;;;2.80;99.90;;;;;;5097571;28;20222;-83
2021/03/18 22:00:27;;;;;;;17.87;10.00;;;2.80;99.90;;;;;;5090236;28;20233;-83
2021/03/18 22:02:54;;;;;;;20.77;10.87;;;2.90;99.90;;;;;;5089259;28;20202;-82
2021/03/18 22:05:23;;;;;;;21.03;11.77;;;2.80;99.90;;;;;;5097172;28;20206;-82
2021/03/18 22:07:51;;;;;;;21.07;11.30;;;2.80;99.90;;;;;;5106070;28;20265;-82
2021/03/18 22:10:18;;;;;;;25.57;14.20;;;2.60;99.90;;;;;;5091981;28;20296;-82
2021/03/18 22:12:48;;;;;;;29.30;14.90;;;2.60;99.90;;;;;;5095971;28;20343;-83
2021/03/18 22:15:17;;;;;;;27.27;14.67;;;2.60;99.90;;;;;;5098101;28;20193;-82
2021/03/18 22:17:49;;;;;;;29.27;15.90;;;2.50;99.90;;;;;;5103364;28;20296;-82
2021/03/18 22:20:18;;;;;;;28.30;15.57;;;2.50;99.90;;;;;;5097425;28;20240;-82
2021/03/18 22:22:50;;;;;;;27.87;15.27;;;2.60;99.90;;;;;;5097666;28;20242;-82
2021/03/18 22:25:19;;;;;;;28.60;15.17;;;2.50;99.90;;;;;;5094738;28;20212;-81
2021/03/18 22:27:46;;;;;;;24.77;13.93;;;2.50;99.90;;;;;;5096126;28;20197;-82
2021/03/18 22:30:18;;;;;;;28.80;15.13;;;2.40;99.90;;;;;;5100903;28;20692;-82
2021/03/18 22:32:47;;;;;;;29.33;15.07;;;2.40;99.90;;;;;;5099184;28;20699;-82
2021/03/18 22:35:19;;;;;;;27.90;14.23;;;2.40;99.90;;;;;;5096542;28;20240;-83
2021/03/18 22:37:53;;;;;;;27.47;14.73;;;2.30;99.90;;;;;;5096603;28;20582;-82
2021/03/18 22:40:23;;;;;;;26.87;15.17;;;2.20;99.90;;;;;;5092728;28;20222;-82
2021/03/18 22:42:55;;;;;;;28.10;14.27;;;2.30;99.90;;;;;;5094909;28;20262;-82
2021/03/18 22:45:25;;;;;;;29.03;15.67;;;2.20;99.90;;;;;;5094043;28;20224;-82
2021/03/18 22:47:54;;;;;;;26.63;15.07;;;2.10;99.90;;;;;;5098694;28;20335;-83
2021/03/18 22:50:24;;;;;;;27.03;14.90;;;2.10;99.90;;;;;;5099437;28;20270;-83
2021/03/18 22:52:53;;;;;;;24.53;13.27;;;2.10;99.90;;;;;;5100320;28;20209;-83
2021/03/18 22:55:19;;;;;;;26.47;14.47;;;2.00;99.90;;;;;;5087157;28;20201;-83
2021/03/18 22:57:47;;;;;;;28.53;15.37;;;1.80;99.90;;;;;;5097445;28;20205;-84
2021/03/18 23:00:17;;;;;;;29.03;14.37;;;1.80;99.90;;;;;;5103237;28;20924;-84
2021/03/18 23:02:44;;;;;;;28.93;14.73;;;1.80;99.90;;;;;;5092978;28;20213;-82
2021/03/18 23:05:14;;;;;;;29.27;15.03;;;1.80;99.90;;;;;;5090484;28;20236;-82
2021/03/18 23:07:43;;;;;;;30.33;14.30;;;1.70;99.90;;;;;;5093320;28;20200;-82
2021/03/18 23:10:14;;;;;;;26.00;13.67;;;1.60;99.90;;;;;;5098307;28;20209;-81
2021/03/18 23:12:41;;;;;;;28.77;15.63;;;1.50;99.90;;;;;;5084714;28;20229;-82
2021/03/18 23:15:15;;;;;;;27.37;14.70;;;1.50;99.90;;;;;;5092971;28;20266;-81
2021/03/18 23:17:50;;;;;;;30.43;16.27;;;1.60;99.90;;;;;;5090707;28;20216;-79
2021/03/18 23:20:20;;;;;;;28.97;15.07;;;1.70;99.90;;;;;;5098311;28;20217;-83
2021/03/18 23:22:47;;;;;;;28.00;14.93;;;1.70;99.90;;;;;;5108815;28;20586;-79
2021/03/18 23:25:15;;;;;;;31.53;17.07;;;1.70;99.90;;;;;;5100799;28;20201;-80
2021/03/18 23:27:45;;;;;;;31.30;16.53;;;1.70;99.90;;;;;;5095200;28;20234;-83
2021/03/18 23:30:19;;;;;;;34.50;18.20;;;1.80;99.90;;;;;;5092281;28;20290;-81
2021/03/18 23:32:48;;;;;;;35.77;17.67;;;1.80;99.90;;;;;;5098967;28;20231;-80
2021/03/18 23:35:16;;;;;;;33.43;16.30;;;1.90;99.90;;;;;;5091604;28;20238;-83
2021/03/18 23:37:50;;;;;;;34.00;17.87;;;2.00;99.90;;;;;;5109106;28;20204;-80
2021/03/18 23:40:20;;;;;;;32.33;16.80;;;2.00;99.90;;;;;;5094555;28;20304;-81
2021/03/18 23:42:46;;;;;;;33.27;17.60;;;1.90;99.90;;;;;;5100911;28;20217;-80
2021/03/18 23:45:14;;;;;;;33.97;16.70;;;1.90;99.90;;;;;;5092709;28;20240;-85
2021/03/18 23:47:41;;;;;;;32.53;17.63;;;1.80;99.90;;;;;;5100866;28;20277;-80
2021/03/18 23:50:12;;;;;;;36.00;18.27;;;1.70;99.90;;;;;;5094933;28;20293;-81
2021/03/18 23:52:41;;;;;;;31.73;16.43;;;1.70;99.90;;;;;;5087820;28;20409;-81
2021/03/18 23:55:16;;;;;;;30.93;15.63;;;1.70;99.90;;;;;;5093870;28;20289;-83
2021/03/18 23:57:44;;;;;;;32.23;16.00;;;1.70;99.90;;;;;;5091596;28;20342;-81
